Tor Futura — OZZE2 — position and weather

sailwx.info

Track history (hours):
 
Tides and Currents Weather Stations Pressure Air Temp Water Temp Dewpoint Dewpoint Depression Visibility Wind Speed Wind Dir Waves Ship Positions

Tor Futura

Last reported at 2014-Oct-31 18:22 UTC. Time now 2014-Nov-01 04:48 UTC.
Position N 38°33' E 008°44'.

Length 183.1 m; beam 25.2 m; draft 7.8 m.

Type: Cargo ship. MMSI: 219927000.

Date/timePositionNaut miles runAvg speedWind from/ knotsBaromVisibWave heightAir tempDewpointWater temp
2014-Oct-31 18:22N 38°33' E 008°44'1113.5
2014-Oct-31 17:31N 38°42' E 008°34'4013.5
2014-Oct-31 14:33N 39°14' E 008°04'3715.0
2014-Oct-31 12:06N 39°47' E 007°41'17614.0
2014-Oct-30 23:33N 42°20' E 005°48'1413.9
2014-Oct-30 22:32N 42°33' E 005°39'1413.9
2014-Oct-30 21:33N 42°45' E 005°30'1414.0
2014-Oct-30 20:32N 42°57' E 005°20'1514.1
2014-Oct-30 19:29N 43°10' E 005°10'1111.6
2014-Oct-30 18:33N 43°20' E 005°16'4 3.8
2014-Oct-30 17:30N 43°19' E 005°22'0 0.0
2014-Oct-30 16:33N 43°19' E 005°22'0 0.0
2014-Oct-30 15:30N 43°19' E 005°22'0 0.0
2014-Oct-30 14:30N 43°19' E 005°22'0 0.0
2014-Oct-30 13:30N 43°19' E 005°22'0 0.0
2014-Oct-30 12:33N 43°19' E 005°22'0 0.0
2014-Oct-30 11:30N 43°19' E 005°22'0 0.0
2014-Oct-30 10:21N 43°19' E 005°22'0 0.0
2014-Oct-30 09:33N 43°19' E 005°22'0 0.0
2014-Oct-30 08:33N 43°19' E 005°22'0 0.0
2014-Oct-30 07:24N 43°19' E 005°22'4 5.3
2014-Oct-30 06:33N 43°19' E 005°15'1611.8
2014-Oct-30 05:12N 43°03' E 005°16'913.9
2014-Oct-30 04:33N 42°56' E 005°22'1414.0
2014-Oct-30 03:33N 42°44' E 005°32'1714.2
2014-Oct-30 02:22N 42°29' E 005°43'19814.3
2014-Oct-29 12:32N 39°35' E 007°50'1414.7
2014-Oct-29 11:33N 39°23' E 007°59'1814.1
2014-Oct-29 10:19N 39°07' E 008°10'2514.2
2014-Oct-29 08:33N 38°47' E 008°29'1414.6
2014-Oct-29 07:33N 38°37' E 008°43'  
2014-Oct-26 19:24N 38°29' E 008°49'1214.5
2014-Oct-26 18:33N 38°38' E 008°38'1514.5
2014-Oct-26 17:33N 38°48' E 008°25'1514.3
2014-Oct-26 16:29N 39°01' E 008°14'1514.4
2014-Oct-26 15:26N 39°15' E 008°05'1314.4
2014-Oct-26 14:33N 39°26' E 007°57'15812.7
2014-Oct-26 02:08N 41°44' E 006°15'1313.7
2014-Oct-26 01:12N 41°55' E 006°07'5713.9
2014-Oct-25 21:08N 42°45' E 005°30'913.6
2014-Oct-25 20:27N 42°53' E 005°24'1614.0
2014-Oct-25 19:17N 43°07' E 005°13'912.8
2014-Oct-25 18:34N 43°16' E 005°09'10 7.5
2014-Oct-25 17:16N 43°19' E 005°22'0 0.0
2014-Oct-25 16:31N 43°19' E 005°22'0 0.0
2014-Oct-25 15:07N 43°19' E 005°22'0 0.0
2014-Oct-25 14:19N 43°19' E 005°22'0 0.0
2014-Oct-25 13:07N 43°19' E 005°22'0 0.0
2014-Oct-25 12:25N 43°19' E 005°22'0 0.0
2014-Oct-25 10:25N 43°19' E 005°22'0 0.0
2014-Oct-25 09:29N 43°19' E 005°22'0 0.0
2014-Oct-25 08:28N 43°19' E 005°22'0 0.0
2014-Oct-25 07:31N 43°19' E 005°22'0 0.1
2014-Oct-25 06:32N 43°19' E 005°21'4 4.5
2014-Oct-25 05:33N 43°19' E 005°15'7 6.9
2014-Oct-25 04:33N 43°13' E 005°11'11614.0
2014-Oct-24 20:16N 41°31' E 006°26'1213.5
2014-Oct-24 19:22N 41°21' E 006°34'1515.5
2014-Oct-24 18:23N 41°08' E 006°44'1415.4
2014-Oct-24 17:27N 40°55' E 006°53'9315.7
2014-Oct-24 11:31N 39°33' E 007°51'3315.7
2014-Oct-24 09:23N 39°04' E 008°12'1715.6
2014-Oct-24 08:19N 38°50' E 008°23'1515.5
2014-Oct-24 07:22N 38°41' E 008°38'1315.3
2014-Oct-24 06:33N 38°33' E 008°50'3 0.1
2014-Oct-22 13:10N 38°30' E 008°48'914.4
2014-Oct-22 12:33N 38°37' E 008°39'1817.8
2014-Oct-22 11:32N 38°49' E 008°23'1917.9
2014-Oct-22 10:28N 39°06' E 008°11'1917.7
2014-Oct-22 09:25N 39°22' E 007°59'1517.7
2014-Oct-22 08:33N 39°36' E 007°49'25117.9
2014-Oct-21 18:34N 43°16' E 005°09'  
Track history (hours):
 
Tides and Currents Weather Stations Pressure Air Temp Water Temp Dewpoint Dewpoint Depression Visibility Wind Speed Wind Dir Waves Ship Positions

Tor Futura

Last reported at 2014-Oct-31 18:22 UTC. Time now 2014-Nov-01 04:48 UTC.
Position N 38°33' E 008°44'.

Length 183.1 m; beam 25.2 m; draft 7.8 m.

Type: Cargo ship. MMSI: 219927000.

Date/timePositionNaut miles runAvg speedWind from/ knotsBaromVisibWave heightAir tempDewpointWater temp
2014-Oct-31 18:22N 38°33' E 008°44'1113.5
2014-Oct-31 17:31N 38°42' E 008°34'4013.5
2014-Oct-31 14:33N 39°14' E 008°04'3715.0
2014-Oct-31 12:06N 39°47' E 007°41'17614.0
2014-Oct-30 23:33N 42°20' E 005°48'1413.9
2014-Oct-30 22:32N 42°33' E 005°39'1413.9
2014-Oct-30 21:33N 42°45' E 005°30'1414.0
2014-Oct-30 20:32N 42°57' E 005°20'1514.1
2014-Oct-30 19:29N 43°10' E 005°10'1111.6
2014-Oct-30 18:33N 43°20' E 005°16'4 3.8
2014-Oct-30 17:30N 43°19' E 005°22'0 0.0
2014-Oct-30 16:33N 43°19' E 005°22'0 0.0
2014-Oct-30 15:30N 43°19' E 005°22'0 0.0
2014-Oct-30 14:30N 43°19' E 005°22'0 0.0
2014-Oct-30 13:30N 43°19' E 005°22'0 0.0
2014-Oct-30 12:33N 43°19' E 005°22'0 0.0
2014-Oct-30 11:30N 43°19' E 005°22'0 0.0
2014-Oct-30 10:21N 43°19' E 005°22'0 0.0
2014-Oct-30 09:33N 43°19' E 005°22'0 0.0
2014-Oct-30 08:33N 43°19' E 005°22'0 0.0
2014-Oct-30 07:24N 43°19' E 005°22'4 5.3
2014-Oct-30 06:33N 43°19' E 005°15'1611.8
2014-Oct-30 05:12N 43°03' E 005°16'913.9
2014-Oct-30 04:33N 42°56' E 005°22'1414.0
2014-Oct-30 03:33N 42°44' E 005°32'1714.2
2014-Oct-30 02:22N 42°29' E 005°43'19814.3
2014-Oct-29 12:32N 39°35' E 007°50'1414.7
2014-Oct-29 11:33N 39°23' E 007°59'1814.1
2014-Oct-29 10:19N 39°07' E 008°10'2514.2
2014-Oct-29 08:33N 38°47' E 008°29'1414.6
2014-Oct-29 07:33N 38°37' E 008°43'  
2014-Oct-26 19:24N 38°29' E 008°49'1214.5
2014-Oct-26 18:33N 38°38' E 008°38'1514.5
2014-Oct-26 17:33N 38°48' E 008°25'1514.3
2014-Oct-26 16:29N 39°01' E 008°14'1514.4
2014-Oct-26 15:26N 39°15' E 008°05'1314.4
2014-Oct-26 14:33N 39°26' E 007°57'15812.7
2014-Oct-26 02:08N 41°44' E 006°15'1313.7
2014-Oct-26 01:12N 41°55' E 006°07'5713.9
2014-Oct-25 21:08N 42°45' E 005°30'913.6
2014-Oct-25 20:27N 42°53' E 005°24'1614.0
2014-Oct-25 19:17N 43°07' E 005°13'912.8
2014-Oct-25 18:34N 43°16' E 005°09'10 7.5
2014-Oct-25 17:16N 43°19' E 005°22'0 0.0
2014-Oct-25 16:31N 43°19' E 005°22'0 0.0
2014-Oct-25 15:07N 43°19' E 005°22'0 0.0
2014-Oct-25 14:19N 43°19' E 005°22'0 0.0
2014-Oct-25 13:07N 43°19' E 005°22'0 0.0
2014-Oct-25 12:25N 43°19' E 005°22'0 0.0
2014-Oct-25 10:25N 43°19' E 005°22'0 0.0
2014-Oct-25 09:29N 43°19' E 005°22'0 0.0
2014-Oct-25 08:28N 43°19' E 005°22'0 0.0
2014-Oct-25 07:31N 43°19' E 005°22'0 0.1
2014-Oct-25 06:32N 43°19' E 005°21'4 4.5
2014-Oct-25 05:33N 43°19' E 005°15'7 6.9
2014-Oct-25 04:33N 43°13' E 005°11'11614.0
2014-Oct-24 20:16N 41°31' E 006°26'1213.5
2014-Oct-24 19:22N 41°21' E 006°34'1515.5
2014-Oct-24 18:23N 41°08' E 006°44'1415.4
2014-Oct-24 17:27N 40°55' E 006°53'9315.7
2014-Oct-24 11:31N 39°33' E 007°51'3315.7
2014-Oct-24 09:23N 39°04' E 008°12'1715.6
2014-Oct-24 08:19N 38°50' E 008°23'1515.5
2014-Oct-24 07:22N 38°41' E 008°38'1315.3
2014-Oct-24 06:33N 38°33' E 008°50'3 0.1
2014-Oct-22 13:10N 38°30' E 008°48'914.4
2014-Oct-22 12:33N 38°37' E 008°39'1817.8
2014-Oct-22 11:32N 38°49' E 008°23'1917.9
2014-Oct-22 10:28N 39°06' E 008°11'1917.7
2014-Oct-22 09:25N 39°22' E 007°59'1517.7
2014-Oct-22 08:33N 39°36' E 007°49'25117.9
2014-Oct-21 18:34N 43°16' E 005°09'  

Dump ship's entire track history